sensor_id;sensor_type;location;lat;lon;timestamp;P1;durP1;ratioP1;P2;durP2;ratioP2
5121;SDS011;2563;52.242;7.956;2022-08-16T00:00:10;10.40;;;8.20;;
5121;SDS011;2563;52.242;7.956;2022-08-16T00:02:36;13.23;;;8.07;;
5121;SDS011;2563;52.242;7.956;2022-08-16T00:05:03;11.03;;;7.50;;
5121;SDS011;2563;52.242;7.956;2022-08-16T00:07:31;13.23;;;8.53;;
5121;SDS011;2563;52.242;7.956;2022-08-16T00:09:57;13.90;;;8.43;;
5121;SDS011;2563;52.242;7.956;2022-08-16T00:12:22;16.47;;;8.83;;
5121;SDS011;2563;52.242;7.956;2022-08-16T00:14:48;11.60;;;8.40;;
5121;SDS011;2563;52.242;7.956;2022-08-16T00:17:13;14.07;;;7.90;;
5121;SDS011;2563;52.242;7.956;2022-08-16T00:19:39;16.33;;;8.87;;
5121;SDS011;2563;52.242;7.956;2022-08-16T00:22:04;14.93;;;9.10;;
5121;SDS011;2563;52.242;7.956;2022-08-16T00:24:30;11.90;;;8.27;;
5121;SDS011;2563;52.242;7.956;2022-08-16T00:26:55;13.30;;;8.50;;
5121;SDS011;2563;52.242;7.956;2022-08-16T00:29:21;12.87;;;7.53;;
5121;SDS011;2563;52.242;7.956;2022-08-16T00:31:48;15.53;;;9.77;;
5121;SDS011;2563;52.242;7.956;2022-08-16T00:34:15;15.10;;;8.20;;
5121;SDS011;2563;52.242;7.956;2022-08-16T00:36:42;12.30;;;8.40;;
5121;SDS011;2563;52.242;7.956;2022-08-16T00:39:10;14.77;;;8.70;;
5121;SDS011;2563;52.242;7.956;2022-08-16T00:41:40;14.93;;;8.53;;
5121;SDS011;2563;52.242;7.956;2022-08-16T00:44:08;12.90;;;8.67;;
5121;SDS011;2563;52.242;7.956;2022-08-16T00:49:10;13.00;;;7.90;;
5121;SDS011;2563;52.242;7.956;2022-08-16T00:51:37;13.77;;;8.47;;
5121;SDS011;2563;52.242;7.956;2022-08-16T00:54:03;11.80;;;7.97;;
5121;SDS011;2563;52.242;7.956;2022-08-16T00:56:30;18.47;;;9.40;;
5121;SDS011;2563;52.242;7.956;2022-08-16T00:58:58;13.97;;;8.60;;
5121;SDS011;2563;52.242;7.956;2022-08-16T01:01:24;11.77;;;8.33;;
5121;SDS011;2563;52.242;7.956;2022-08-16T01:03:51;11.97;;;8.50;;
5121;SDS011;2563;52.242;7.956;2022-08-16T01:06:18;17.20;;;9.43;;
5121;SDS011;2563;52.242;7.956;2022-08-16T01:08:46;14.07;;;8.70;;
5121;SDS011;2563;52.242;7.956;2022-08-16T01:11:14;14.37;;;7.97;;
5121;SDS011;2563;52.242;7.956;2022-08-16T01:13:40;13.53;;;8.40;;
5121;SDS011;2563;52.242;7.956;2022-08-16T01:16:12;14.60;;;7.93;;
5121;SDS011;2563;52.242;7.956;2022-08-16T01:18:45;14.33;;;8.40;;
5121;SDS011;2563;52.242;7.956;2022-08-16T01:24:22;14.33;;;7.30;;
5121;SDS011;2563;52.242;7.956;2022-08-16T01:26:52;12.90;;;8.30;;
5121;SDS011;2563;52.242;7.956;2022-08-16T01:29:23;15.17;;;7.53;;
5121;SDS011;2563;52.242;7.956;2022-08-16T01:31:53;12.93;;;8.43;;
5121;SDS011;2563;52.242;7.956;2022-08-16T01:34:18;11.00;;;7.50;;
5121;SDS011;2563;52.242;7.956;2022-08-16T01:36:44;11.80;;;8.50;;
5121;SDS011;2563;52.242;7.956;2022-08-16T01:39:12;9.93;;;7.37;;
5121;SDS011;2563;52.242;7.956;2022-08-16T01:41:40;11.90;;;7.90;;
5121;SDS011;2563;52.242;7.956;2022-08-16T01:44:06;13.50;;;8.40;;
5121;SDS011;2563;52.242;7.956;2022-08-16T01:46:35;11.80;;;7.60;;
5121;SDS011;2563;52.242;7.956;2022-08-16T01:49:11;15.53;;;8.67;;
5121;SDS011;2563;52.242;7.956;2022-08-16T01:51:39;12.90;;;7.87;;
5121;SDS011;2563;52.242;7.956;2022-08-16T01:54:06;11.80;;;7.80;;
5121;SDS011;2563;52.242;7.956;2022-08-16T01:56:32;19.07;;;9.13;;
5121;SDS011;2563;52.242;7.956;2022-08-16T01:58:58;14.73;;;8.83;;
5121;SDS011;2563;52.242;7.956;2022-08-16T02:01:25;14.63;;;9.20;;
5121;SDS011;2563;52.242;7.956;2022-08-16T02:03:51;10.63;;;7.77;;
5121;SDS011;2563;52.242;7.956;2022-08-16T02:06:17;13.23;;;8.20;;
5121;SDS011;2563;52.242;7.956;2022-08-16T02:08:43;12.83;;;8.40;;
5121;SDS011;2563;52.242;7.956;2022-08-16T02:11:09;12.07;;;8.10;;
5121;SDS011;2563;52.242;7.956;2022-08-16T02:13:35;11.93;;;8.30;;
5121;SDS011;2563;52.242;7.956;2022-08-16T02:16:02;12.23;;;8.43;;
5121;SDS011;2563;52.242;7.956;2022-08-16T02:18:29;13.27;;;7.70;;
5121;SDS011;2563;52.242;7.956;2022-08-16T02:20:54;13.00;;;8.30;;
5121;SDS011;2563;52.242;7.956;2022-08-16T02:23:20;11.30;;;7.93;;
5121;SDS011;2563;52.242;7.956;2022-08-16T02:25:46;11.87;;;7.87;;
5121;SDS011;2563;52.242;7.956;2022-08-16T02:28:13;10.80;;;7.70;;
5121;SDS011;2563;52.242;7.956;2022-08-16T02:30:39;11.07;;;8.00;;
5121;SDS011;2563;52.242;7.956;2022-08-16T02:33:04;13.13;;;8.20;;
5121;SDS011;2563;52.242;7.956;2022-08-16T02:35:31;12.57;;;8.20;;
5121;SDS011;2563;52.242;7.956;2022-08-16T02:37:58;18.13;;;9.07;;
5121;SDS011;2563;52.242;7.956;2022-08-16T02:40:24;11.80;;;7.97;;
5121;SDS011;2563;52.242;7.956;2022-08-16T02:42:51;12.40;;;8.00;;
5121;SDS011;2563;52.242;7.956;2022-08-16T02:45:19;11.60;;;8.67;;
5121;SDS011;2563;52.242;7.956;2022-08-16T02:47:46;16.60;;;8.47;;
5121;SDS011;2563;52.242;7.956;2022-08-16T02:50:12;13.47;;;8.63;;
5121;SDS011;2563;52.242;7.956;2022-08-16T02:52:37;14.20;;;8.43;;
5121;SDS011;2563;52.242;7.956;2022-08-16T02:55:03;12.23;;;7.73;;
5121;SDS011;2563;52.242;7.956;2022-08-16T02:57:30;12.00;;;7.23;;
5121;SDS011;2563;52.242;7.956;2022-08-16T02:59:55;11.33;;;7.70;;
5121;SDS011;2563;52.242;7.956;2022-08-16T03:02:22;14.80;;;9.53;;
5121;SDS011;2563;52.242;7.956;2022-08-16T03:04:48;15.10;;;9.97;;
5121;SDS011;2563;52.242;7.956;2022-08-16T03:07:13;12.47;;;7.70;;
5121;SDS011;2563;52.242;7.956;2022-08-16T03:09:39;11.83;;;7.77;;
5121;SDS011;2563;52.242;7.956;2022-08-16T03:12:04;15.43;;;8.27;;
5121;SDS011;2563;52.242;7.956;2022-08-16T03:14:30;16.70;;;9.00;;
5121;SDS011;2563;52.242;7.956;2022-08-16T03:16:57;13.00;;;9.17;;
5121;SDS011;2563;52.242;7.956;2022-08-16T03:19:23;18.70;;;9.80;;
5121;SDS011;2563;52.242;7.956;2022-08-16T03:21:49;18.73;;;9.93;;
5121;SDS011;2563;52.242;7.956;2022-08-16T03:24:14;16.90;;;10.90;;
5121;SDS011;2563;52.242;7.956;2022-08-16T03:26:40;17.60;;;11.13;;
5121;SDS011;2563;52.242;7.956;2022-08-16T03:29:06;19.60;;;11.67;;
5121;SDS011;2563;52.242;7.956;2022-08-16T03:31:31;13.77;;;10.03;;
5121;SDS011;2563;52.242;7.956;2022-08-16T03:33:56;18.93;;;10.40;;
5121;SDS011;2563;52.242;7.956;2022-08-16T03:36:22;15.63;;;10.63;;
5121;SDS011;2563;52.242;7.956;2022-08-16T03:38:47;14.77;;;10.40;;
5121;SDS011;2563;52.242;7.956;2022-08-16T03:41:13;16.60;;;9.70;;
5121;SDS011;2563;52.242;7.956;2022-08-16T03:43:39;15.90;;;10.10;;
5121;SDS011;2563;52.242;7.956;2022-08-16T03:46:04;19.17;;;9.63;;
5121;SDS011;2563;52.242;7.956;2022-08-16T03:48:32;16.17;;;9.97;;
5121;SDS011;2563;52.242;7.956;2022-08-16T03:51:01;16.80;;;10.30;;
5121;SDS011;2563;52.242;7.956;2022-08-16T03:53:28;16.67;;;10.20;;
5121;SDS011;2563;52.242;7.956;2022-08-16T03:55:54;24.93;;;11.13;;
5121;SDS011;2563;52.242;7.956;2022-08-16T03:58:20;13.47;;;9.23;;
5121;SDS011;2563;52.242;7.956;2022-08-16T04:00:46;13.13;;;8.90;;
5121;SDS011;2563;52.242;7.956;2022-08-16T04:03:13;18.43;;;8.50;;
5121;SDS011;2563;52.242;7.956;2022-08-16T04:05:40;12.50;;;9.10;;
5121;SDS011;2563;52.242;7.956;2022-08-16T04:08:07;15.20;;;10.10;;
5121;SDS011;2563;52.242;7.956;2022-08-16T04:10:33;12.90;;;9.13;;
5121;SDS011;2563;52.242;7.956;2022-08-16T04:12:59;10.73;;;8.00;;
5121;SDS011;2563;52.242;7.956;2022-08-16T04:15:24;11.53;;;8.00;;
5121;SDS011;2563;52.242;7.956;2022-08-16T04:17:53;13.97;;;9.00;;
5121;SDS011;2563;52.242;7.956;2022-08-16T04:20:18;11.93;;;8.00;;
5121;SDS011;2563;52.242;7.956;2022-08-16T04:22:45;15.57;;;7.97;;
5121;SDS011;2563;52.242;7.956;2022-08-16T04:25:11;12.60;;;7.67;;
5121;SDS011;2563;52.242;7.956;2022-08-16T04:27:38;10.27;;;7.20;;
5121;SDS011;2563;52.242;7.956;2022-08-16T04:30:06;13.03;;;8.80;;
5121;SDS011;2563;52.242;7.956;2022-08-16T04:32:34;11.67;;;8.30;;
5121;SDS011;2563;52.242;7.956;2022-08-16T04:34:59;16.97;;;7.83;;
5121;SDS011;2563;52.242;7.956;2022-08-16T04:37:25;14.90;;;8.70;;
5121;SDS011;2563;52.242;7.956;2022-08-16T04:39:50;18.23;;;8.70;;
5121;SDS011;2563;52.242;7.956;2022-08-16T04:42:16;11.07;;;8.10;;
5121;SDS011;2563;52.242;7.956;2022-08-16T04:44:43;11.57;;;7.50;;
5121;SDS011;2563;52.242;7.956;2022-08-16T04:47:10;11.67;;;7.70;;
5121;SDS011;2563;52.242;7.956;2022-08-16T04:49:36;10.70;;;8.10;;
5121;SDS011;2563;52.242;7.956;2022-08-16T04:52:02;12.13;;;7.97;;
5121;SDS011;2563;52.242;7.956;2022-08-16T04:54:27;11.70;;;8.10;;
5121;SDS011;2563;52.242;7.956;2022-08-16T04:56:53;10.77;;;7.70;;
5121;SDS011;2563;52.242;7.956;2022-08-16T04:59:18;14.20;;;8.00;;
5121;SDS011;2563;52.242;7.956;2022-08-16T05:01:43;13.60;;;8.97;;
5121;SDS011;2563;52.242;7.956;2022-08-16T05:04:09;9.80;;;7.63;;
5121;SDS011;2563;52.242;7.956;2022-08-16T05:06:34;11.67;;;7.20;;
5121;SDS011;2563;52.242;7.956;2022-08-16T05:09:00;10.53;;;6.87;;
5121;SDS011;2563;52.242;7.956;2022-08-16T05:11:25;13.13;;;7.40;;
5121;SDS011;2563;52.242;7.956;2022-08-16T05:13:52;11.10;;;7.60;;
5121;SDS011;2563;52.242;7.956;2022-08-16T05:16:20;9.07;;;6.60;;
5121;SDS011;2563;52.242;7.956;2022-08-16T05:18:47;12.00;;;7.70;;
5121;SDS011;2563;52.242;7.956;2022-08-16T05:21:14;11.70;;;7.90;;
5121;SDS011;2563;52.242;7.956;2022-08-16T05:23:40;15.07;;;8.47;;
5121;SDS011;2563;52.242;7.956;2022-08-16T05:26:05;14.13;;;7.73;;
5121;SDS011;2563;52.242;7.956;2022-08-16T05:28:31;10.83;;;7.33;;
5121;SDS011;2563;52.242;7.956;2022-08-16T05:30:56;12.60;;;7.67;;
5121;SDS011;2563;52.242;7.956;2022-08-16T05:33:21;15.67;;;7.80;;
5121;SDS011;2563;52.242;7.956;2022-08-16T05:35:48;16.10;;;7.37;;
5121;SDS011;2563;52.242;7.956;2022-08-16T05:38:14;11.30;;;7.73;;
5121;SDS011;2563;52.242;7.956;2022-08-16T05:40:40;10.10;;;7.83;;
5121;SDS011;2563;52.242;7.956;2022-08-16T05:43:05;14.17;;;8.30;;
5121;SDS011;2563;52.242;7.956;2022-08-16T05:45:31;12.03;;;8.33;;
5121;SDS011;2563;52.242;7.956;2022-08-16T05:47:56;12.63;;;8.60;;
5121;SDS011;2563;52.242;7.956;2022-08-16T05:50:21;17.90;;;7.67;;
5121;SDS011;2563;52.242;7.956;2022-08-16T05:52:47;11.30;;;8.10;;
5121;SDS011;2563;52.242;7.956;2022-08-16T05:55:13;12.57;;;8.20;;
5121;SDS011;2563;52.242;7.956;2022-08-16T05:57:39;13.87;;;8.13;;
5121;SDS011;2563;52.242;7.956;2022-08-16T06:00:05;15.20;;;9.03;;
5121;SDS011;2563;52.242;7.956;2022-08-16T06:02:37;17.17;;;9.93;;
5121;SDS011;2563;52.242;7.956;2022-08-16T06:05:03;15.30;;;9.93;;
5121;SDS011;2563;52.242;7.956;2022-08-16T06:07:30;14.03;;;9.27;;
5121;SDS011;2563;52.242;7.956;2022-08-16T06:09:55;15.10;;;9.30;;
5121;SDS011;2563;52.242;7.956;2022-08-16T06:12:23;18.17;;;9.90;;
5121;SDS011;2563;52.242;7.956;2022-08-16T06:14:49;16.40;;;9.03;;
5121;SDS011;2563;52.242;7.956;2022-08-16T06:17:14;15.23;;;8.93;;
5121;SDS011;2563;52.242;7.956;2022-08-16T06:19:40;14.13;;;7.90;;
5121;SDS011;2563;52.242;7.956;2022-08-16T06:22:06;15.63;;;8.33;;
5121;SDS011;2563;52.242;7.956;2022-08-16T06:24:32;12.37;;;8.20;;
5121;SDS011;2563;52.242;7.956;2022-08-16T06:26:57;21.00;;;9.33;;
5121;SDS011;2563;52.242;7.956;2022-08-16T06:29:23;12.87;;;8.77;;
5121;SDS011;2563;52.242;7.956;2022-08-16T06:31:48;17.57;;;9.13;;
5121;SDS011;2563;52.242;7.956;2022-08-16T06:34:13;11.67;;;8.90;;
5121;SDS011;2563;52.242;7.956;2022-08-16T06:36:39;18.43;;;10.47;;
5121;SDS011;2563;52.242;7.956;2022-08-16T06:39:04;15.50;;;9.60;;
5121;SDS011;2563;52.242;7.956;2022-08-16T06:41:30;18.10;;;9.47;;
5121;SDS011;2563;52.242;7.956;2022-08-16T06:43:55;14.90;;;8.90;;
5121;SDS011;2563;52.242;7.956;2022-08-16T06:46:32;18.00;;;9.70;;
5121;SDS011;2563;52.242;7.956;2022-08-16T06:49:00;18.00;;;10.80;;
5121;SDS011;2563;52.242;7.956;2022-08-16T06:51:26;15.40;;;9.80;;
5121;SDS011;2563;52.242;7.956;2022-08-16T06:53:52;14.50;;;9.40;;
5121;SDS011;2563;52.242;7.956;2022-08-16T06:56:17;13.50;;;10.17;;
5121;SDS011;2563;52.242;7.956;2022-08-16T06:58:43;16.17;;;9.50;;
5121;SDS011;2563;52.242;7.956;2022-08-16T07:01:08;13.87;;;10.27;;
5121;SDS011;2563;52.242;7.956;2022-08-16T07:03:33;13.93;;;9.43;;
5121;SDS011;2563;52.242;7.956;2022-08-16T07:05:59;13.60;;;9.83;;
5121;SDS011;2563;52.242;7.956;2022-08-16T07:08:25;13.93;;;9.00;;
5121;SDS011;2563;52.242;7.956;2022-08-16T07:10:51;15.10;;;10.10;;
5121;SDS011;2563;52.242;7.956;2022-08-16T07:13:16;14.30;;;9.77;;
5121;SDS011;2563;52.242;7.956;2022-08-16T07:15:42;12.77;;;9.27;;
5121;SDS011;2563;52.242;7.956;2022-08-16T07:18:08;15.13;;;9.00;;
5121;SDS011;2563;52.242;7.956;2022-08-16T07:20:36;20.07;;;10.10;;
5121;SDS011;2563;52.242;7.956;2022-08-16T07:23:03;14.87;;;9.70;;
5121;SDS011;2563;52.242;7.956;2022-08-16T07:25:31;12.97;;;8.93;;
5121;SDS011;2563;52.242;7.956;2022-08-16T07:27:57;13.03;;;9.00;;
5121;SDS011;2563;52.242;7.956;2022-08-16T07:30:23;13.80;;;10.00;;
5121;SDS011;2563;52.242;7.956;2022-08-16T07:32:49;18.00;;;9.80;;
5121;SDS011;2563;52.242;7.956;2022-08-16T07:35:15;17.77;;;10.07;;
5121;SDS011;2563;52.242;7.956;2022-08-16T07:37:41;17.23;;;10.53;;
5121;SDS011;2563;52.242;7.956;2022-08-16T07:40:07;18.17;;;10.37;;
5121;SDS011;2563;52.242;7.956;2022-08-16T07:42:32;31.03;;;10.27;;
5121;SDS011;2563;52.242;7.956;2022-08-16T07:44:58;19.03;;;9.23;;
5121;SDS011;2563;52.242;7.956;2022-08-16T07:47:24;14.70;;;10.40;;
5121;SDS011;2563;52.242;7.956;2022-08-16T07:49:49;12.17;;;9.00;;
5121;SDS011;2563;52.242;7.956;2022-08-16T07:52:15;15.03;;;8.73;;
5121;SDS011;2563;52.242;7.956;2022-08-16T07:54:40;12.70;;;8.57;;
5121;SDS011;2563;52.242;7.956;2022-08-16T07:57:05;15.20;;;8.80;;
5121;SDS011;2563;52.242;7.956;2022-08-16T07:59:31;15.33;;;9.13;;
5121;SDS011;2563;52.242;7.956;2022-08-16T08:01:56;15.93;;;9.50;;
5121;SDS011;2563;52.242;7.956;2022-08-16T08:04:21;12.33;;;8.90;;
5121;SDS011;2563;52.242;7.956;2022-08-16T08:06:47;12.50;;;7.90;;
5121;SDS011;2563;52.242;7.956;2022-08-16T08:09:12;10.80;;;7.70;;
5121;SDS011;2563;52.242;7.956;2022-08-16T08:11:38;19.23;;;10.30;;
5121;SDS011;2563;52.242;7.956;2022-08-16T08:14:03;12.00;;;7.67;;
5121;SDS011;2563;52.242;7.956;2022-08-16T08:16:29;16.13;;;9.10;;
5121;SDS011;2563;52.242;7.956;2022-08-16T08:18:56;15.90;;;9.27;;
5121;SDS011;2563;52.242;7.956;2022-08-16T08:21:23;14.53;;;9.50;;
5121;SDS011;2563;52.242;7.956;2022-08-16T08:23:49;17.47;;;9.70;;
5121;SDS011;2563;52.242;7.956;2022-08-16T08:26:16;15.33;;;9.80;;
5121;SDS011;2563;52.242;7.956;2022-08-16T08:28:43;14.70;;;10.80;;
5121;SDS011;2563;52.242;7.956;2022-08-16T08:31:08;16.27;;;10.23;;
5121;SDS011;2563;52.242;7.956;2022-08-16T08:33:34;13.43;;;9.37;;
5121;SDS011;2563;52.242;7.956;2022-08-16T08:36:01;12.30;;;8.10;;
5121;SDS011;2563;52.242;7.956;2022-08-16T08:38:31;12.10;;;7.67;;
5121;SDS011;2563;52.242;7.956;2022-08-16T08:40:58;12.47;;;7.23;;
5121;SDS011;2563;52.242;7.956;2022-08-16T08:43:23;12.37;;;7.03;;
5121;SDS011;2563;52.242;7.956;2022-08-16T08:45:49;10.93;;;6.97;;
5121;SDS011;2563;52.242;7.956;2022-08-16T08:48:17;12.90;;;6.63;;
5121;SDS011;2563;52.242;7.956;2022-08-16T08:50:43;9.17;;;7.00;;
5121;SDS011;2563;52.242;7.956;2022-08-16T08:53:08;8.97;;;6.50;;
5121;SDS011;2563;52.242;7.956;2022-08-16T08:55:34;12.00;;;6.57;;
5121;SDS011;2563;52.242;7.956;2022-08-16T08:58:00;10.73;;;6.57;;
5121;SDS011;2563;52.242;7.956;2022-08-16T09:00:25;13.37;;;7.40;;
5121;SDS011;2563;52.242;7.956;2022-08-16T09:02:52;8.10;;;5.43;;
5121;SDS011;2563;52.242;7.956;2022-08-16T09:05:18;6.77;;;6.07;;
5121;SDS011;2563;52.242;7.956;2022-08-16T09:07:45;10.40;;;6.03;;
5121;SDS011;2563;52.242;7.956;2022-08-16T09:10:11;10.10;;;6.07;;
5121;SDS011;2563;52.242;7.956;2022-08-16T09:12:37;10.70;;;6.40;;
5121;SDS011;2563;52.242;7.956;2022-08-16T09:15:04;7.70;;;5.47;;
5121;SDS011;2563;52.242;7.956;2022-08-16T09:17:31;10.77;;;6.03;;
5121;SDS011;2563;52.242;7.956;2022-08-16T09:19:56;8.13;;;6.10;;
5121;SDS011;2563;52.242;7.956;2022-08-16T09:22:22;12.70;;;5.90;;
5121;SDS011;2563;52.242;7.956;2022-08-16T09:24:49;7.27;;;5.40;;
5121;SDS011;2563;52.242;7.956;2022-08-16T09:27:15;8.60;;;5.90;;
5121;SDS011;2563;52.242;7.956;2022-08-16T09:29:41;12.73;;;6.50;;
5121;SDS011;2563;52.242;7.956;2022-08-16T09:32:06;7.43;;;5.87;;
5121;SDS011;2563;52.242;7.956;2022-08-16T09:34:32;8.83;;;5.70;;
5121;SDS011;2563;52.242;7.956;2022-08-16T09:36:57;13.83;;;5.63;;
5121;SDS011;2563;52.242;7.956;2022-08-16T09:39:26;8.37;;;5.50;;
5121;SDS011;2563;52.242;7.956;2022-08-16T09:41:53;7.27;;;5.37;;
5121;SDS011;2563;52.242;7.956;2022-08-16T09:44:24;9.10;;;4.87;;
5121;SDS011;2563;52.242;7.956;2022-08-16T09:46:51;7.40;;;4.83;;
5121;SDS011;2563;52.242;7.956;2022-08-16T09:49:18;8.17;;;5.90;;
5121;SDS011;2563;52.242;7.956;2022-08-16T09:51:44;10.07;;;6.27;;
5121;SDS011;2563;52.242;7.956;2022-08-16T09:54:11;12.60;;;6.13;;
5121;SDS011;2563;52.242;7.956;2022-08-16T09:56:38;8.53;;;6.77;;
5121;SDS011;2563;52.242;7.956;2022-08-16T09:59:06;8.70;;;5.83;;
5121;SDS011;2563;52.242;7.956;2022-08-16T10:01:35;7.57;;;5.70;;
5121;SDS011;2563;52.242;7.956;2022-08-16T10:04:02;10.03;;;6.00;;
5121;SDS011;2563;52.242;7.956;2022-08-16T10:06:29;5.90;;;5.30;;
5121;SDS011;2563;52.242;7.956;2022-08-16T10:08:55;9.33;;;6.17;;
5121;SDS011;2563;52.242;7.956;2022-08-16T10:11:20;8.70;;;6.70;;
5121;SDS011;2563;52.242;7.956;2022-08-16T10:14:04;6.83;;;5.57;;
5121;SDS011;2563;52.242;7.956;2022-08-16T10:16:30;7.43;;;6.10;;
5121;SDS011;2563;52.242;7.956;2022-08-16T10:18:55;10.10;;;6.57;;
5121;SDS011;2563;52.242;7.956;2022-08-16T10:21:21;7.00;;;6.30;;
5121;SDS011;2563;52.242;7.956;2022-08-16T10:23:47;12.23;;;6.20;;
5121;SDS011;2563;52.242;7.956;2022-08-16T10:26:13;10.37;;;5.60;;
5121;SDS011;2563;52.242;7.956;2022-08-16T10:28:39;5.73;;;5.17;;
5121;SDS011;2563;52.242;7.956;2022-08-16T10:31:04;8.10;;;5.90;;
5121;SDS011;2563;52.242;7.956;2022-08-16T10:33:31;8.80;;;5.67;;
5121;SDS011;2563;52.242;7.956;2022-08-16T10:35:58;11.17;;;6.23;;
5121;SDS011;2563;52.242;7.956;2022-08-16T10:38:23;11.07;;;5.87;;
5121;SDS011;2563;52.242;7.956;2022-08-16T10:40:48;7.10;;;6.17;;
5121;SDS011;2563;52.242;7.956;2022-08-16T10:43:14;6.50;;;5.90;;
5121;SDS011;2563;52.242;7.956;2022-08-16T10:45:39;7.70;;;6.23;;
5121;SDS011;2563;52.242;7.956;2022-08-16T10:48:07;6.90;;;5.80;;
5121;SDS011;2563;52.242;7.956;2022-08-16T10:50:34;13.03;;;6.00;;
5121;SDS011;2563;52.242;7.956;2022-08-16T10:53:00;15.43;;;7.00;;
5121;SDS011;2563;52.242;7.956;2022-08-16T10:55:30;7.23;;;6.13;;
5121;SDS011;2563;52.242;7.956;2022-08-16T10:58:01;8.27;;;5.83;;
5121;SDS011;2563;52.242;7.956;2022-08-16T11:00:31;7.60;;;6.13;;
5121;SDS011;2563;52.242;7.956;2022-08-16T11:02:59;6.40;;;5.70;;
5121;SDS011;2563;52.242;7.956;2022-08-16T11:05:28;7.30;;;6.10;;
5121;SDS011;2563;52.242;7.956;2022-08-16T11:07:55;9.10;;;6.30;;
5121;SDS011;2563;52.242;7.956;2022-08-16T11:10:26;6.70;;;6.00;;
5121;SDS011;2563;52.242;7.956;2022-08-16T11:12:54;8.10;;;5.90;;
5121;SDS011;2563;52.242;7.956;2022-08-16T11:15:20;6.53;;;5.83;;
5121;SDS011;2563;52.242;7.956;2022-08-16T11:17:47;5.97;;;5.37;;
5121;SDS011;2563;52.242;7.956;2022-08-16T11:20:14;8.60;;;5.60;;
5121;SDS011;2563;52.242;7.956;2022-08-16T11:22:41;9.80;;;4.90;;
5121;SDS011;2563;52.242;7.956;2022-08-16T11:25:07;8.70;;;5.70;;
5121;SDS011;2563;52.242;7.956;2022-08-16T11:27:34;7.50;;;5.30;;
5121;SDS011;2563;52.242;7.956;2022-08-16T11:29:59;5.33;;;4.83;;
5121;SDS011;2563;52.242;7.956;2022-08-16T11:32:25;9.20;;;5.20;;
5121;SDS011;2563;52.242;7.956;2022-08-16T11:34:52;7.10;;;5.53;;
5121;SDS011;2563;52.242;7.956;2022-08-16T11:37:21;7.47;;;5.87;;
5121;SDS011;2563;52.242;7.956;2022-08-16T11:39:47;11.20;;;6.10;;
5121;SDS011;2563;52.242;7.956;2022-08-16T11:42:13;9.47;;;5.93;;
5121;SDS011;2563;52.242;7.956;2022-08-16T11:44:38;9.50;;;5.60;;
5121;SDS011;2563;52.242;7.956;2022-08-16T11:47:04;8.20;;;6.57;;
5121;SDS011;2563;52.242;7.956;2022-08-16T11:49:29;9.67;;;6.53;;
5121;SDS011;2563;52.242;7.956;2022-08-16T11:51:54;8.13;;;5.87;;
5121;SDS011;2563;52.242;7.956;2022-08-16T11:54:20;11.33;;;6.10;;
5121;SDS011;2563;52.242;7.956;2022-08-16T11:56:45;9.50;;;6.50;;
5121;SDS011;2563;52.242;7.956;2022-08-16T11:59:11;7.50;;;5.63;;
5121;SDS011;2563;52.242;7.956;2022-08-16T12:01:36;7.33;;;5.50;;
5121;SDS011;2563;52.242;7.956;2022-08-16T12:04:02;8.20;;;5.80;;
5121;SDS011;2563;52.242;7.956;2022-08-16T12:06:27;9.60;;;6.30;;
5121;SDS011;2563;52.242;7.956;2022-08-16T12:08:53;7.70;;;6.90;;
5121;SDS011;2563;52.242;7.956;2022-08-16T12:11:22;7.23;;;6.40;;
5121;SDS011;2563;52.242;7.956;2022-08-16T12:13:49;9.17;;;6.70;;
5121;SDS011;2563;52.242;7.956;2022-08-16T12:16:15;6.50;;;5.87;;
5121;SDS011;2563;52.242;7.956;2022-08-16T12:18:40;7.27;;;6.13;;
5121;SDS011;2563;52.242;7.956;2022-08-16T12:21:06;13.63;;;6.23;;
5121;SDS011;2563;52.242;7.956;2022-08-16T12:23:32;6.40;;;5.80;;
5121;SDS011;2563;52.242;7.956;2022-08-16T12:25:57;8.97;;;6.10;;
5121;SDS011;2563;52.242;7.956;2022-08-16T12:28:23;10.30;;;6.37;;
5121;SDS011;2563;52.242;7.956;2022-08-16T12:30:49;6.20;;;5.60;;
5121;SDS011;2563;52.242;7.956;2022-08-16T12:33:16;8.73;;;6.50;;
5121;SDS011;2563;52.242;7.956;2022-08-16T12:35:44;7.10;;;5.70;;
5121;SDS011;2563;52.242;7.956;2022-08-16T12:38:12;6.27;;;5.67;;
5121;SDS011;2563;52.242;7.956;2022-08-16T12:40:39;8.13;;;6.00;;
5121;SDS011;2563;52.242;7.956;2022-08-16T12:43:10;9.83;;;5.67;;
5121;SDS011;2563;52.242;7.956;2022-08-16T12:45:42;7.30;;;5.93;;
5121;SDS011;2563;52.242;7.956;2022-08-16T12:48:09;12.07;;;5.97;;
5121;SDS011;2563;52.242;7.956;2022-08-16T12:50:54;6.47;;;4.93;;
5121;SDS011;2563;52.242;7.956;2022-08-16T12:53:20;9.63;;;5.80;;
5121;SDS011;2563;52.242;7.956;2022-08-16T12:55:46;8.40;;;5.07;;
5121;SDS011;2563;52.242;7.956;2022-08-16T12:58:12;5.87;;;4.97;;
5121;SDS011;2563;52.242;7.956;2022-08-16T13:00:38;9.30;;;5.50;;
5121;SDS011;2563;52.242;7.956;2022-08-16T13:03:04;6.80;;;6.03;;
5121;SDS011;2563;52.242;7.956;2022-08-16T13:05:30;7.00;;;5.47;;
5121;SDS011;2563;52.242;7.956;2022-08-16T13:08:04;8.80;;;6.00;;
5121;SDS011;2563;52.242;7.956;2022-08-16T13:10:30;7.83;;;5.60;;
5121;SDS011;2563;52.242;7.956;2022-08-16T13:12:55;6.87;;;5.70;;
5121;SDS011;2563;52.242;7.956;2022-08-16T13:15:22;14.43;;;6.17;;
5121;SDS011;2563;52.242;7.956;2022-08-16T13:17:52;10.90;;;5.40;;
5121;SDS011;2563;52.242;7.956;2022-08-16T13:20:19;8.00;;;5.63;;
5121;SDS011;2563;52.242;7.956;2022-08-16T13:22:56;5.53;;;4.90;;
5121;SDS011;2563;52.242;7.956;2022-08-16T13:25:25;6.10;;;5.40;;
5121;SDS011;2563;52.242;7.956;2022-08-16T13:27:51;6.80;;;4.97;;
5121;SDS011;2563;52.242;7.956;2022-08-16T13:30:18;5.70;;;5.20;;
5121;SDS011;2563;52.242;7.956;2022-08-16T13:32:44;9.73;;;5.63;;
5121;SDS011;2563;52.242;7.956;2022-08-16T13:35:09;5.93;;;5.33;;
5121;SDS011;2563;52.242;7.956;2022-08-16T13:37:35;7.30;;;4.97;;
5121;SDS011;2563;52.242;7.956;2022-08-16T13:40:01;9.50;;;5.70;;
5121;SDS011;2563;52.242;7.956;2022-08-16T13:42:28;8.17;;;5.30;;
5121;SDS011;2563;52.242;7.956;2022-08-16T13:44:53;6.67;;;5.60;;
5121;SDS011;2563;52.242;7.956;2022-08-16T13:47:18;11.03;;;6.03;;
5121;SDS011;2563;52.242;7.956;2022-08-16T13:49:44;7.77;;;5.97;;
5121;SDS011;2563;52.242;7.956;2022-08-16T13:52:11;8.90;;;5.93;;
5121;SDS011;2563;52.242;7.956;2022-08-16T13:54:37;6.07;;;5.40;;
5121;SDS011;2563;52.242;7.956;2022-08-16T13:57:03;8.33;;;5.30;;
5121;SDS011;2563;52.242;7.956;2022-08-16T13:59:28;6.10;;;5.03;;
5121;SDS011;2563;52.242;7.956;2022-08-16T14:01:55;14.23;;;5.93;;
5121;SDS011;2563;52.242;7.956;2022-08-16T14:04:27;6.40;;;5.60;;
5121;SDS011;2563;52.242;7.956;2022-08-16T14:06:55;15.33;;;6.30;;
5121;SDS011;2563;52.242;7.956;2022-08-16T14:09:21;6.60;;;4.77;;
5121;SDS011;2563;52.242;7.956;2022-08-16T14:11:46;13.53;;;5.43;;
5121;SDS011;2563;52.242;7.956;2022-08-16T14:14:12;5.90;;;5.20;;
5121;SDS011;2563;52.242;7.956;2022-08-16T14:16:37;5.57;;;4.90;;
5121;SDS011;2563;52.242;7.956;2022-08-16T14:19:02;6.80;;;4.50;;
5121;SDS011;2563;52.242;7.956;2022-08-16T14:21:28;8.60;;;5.10;;
5121;SDS011;2563;52.242;7.956;2022-08-16T14:23:53;6.10;;;5.50;;
5121;SDS011;2563;52.242;7.956;2022-08-16T14:26:19;11.87;;;5.57;;
5121;SDS011;2563;52.242;7.956;2022-08-16T14:28:45;6.03;;;5.43;;
5121;SDS011;2563;52.242;7.956;2022-08-16T14:31:10;4.90;;;4.40;;
5121;SDS011;2563;52.242;7.956;2022-08-16T14:33:35;6.90;;;4.93;;
5121;SDS011;2563;52.242;7.956;2022-08-16T14:36:01;9.77;;;5.97;;
5121;SDS011;2563;52.242;7.956;2022-08-16T14:38:26;7.20;;;5.27;;
5121;SDS011;2563;52.242;7.956;2022-08-16T14:40:51;7.73;;;5.50;;
5121;SDS011;2563;52.242;7.956;2022-08-16T14:43:17;9.33;;;5.63;;
5121;SDS011;2563;52.242;7.956;2022-08-16T14:45:42;9.10;;;5.37;;
5121;SDS011;2563;52.242;7.956;2022-08-16T14:48:07;6.53;;;5.80;;
5121;SDS011;2563;52.242;7.956;2022-08-16T14:50:34;6.37;;;5.70;;
5121;SDS011;2563;52.242;7.956;2022-08-16T14:53:01;5.87;;;5.30;;
5121;SDS011;2563;52.242;7.956;2022-08-16T14:55:32;6.70;;;5.30;;
5121;SDS011;2563;52.242;7.956;2022-08-16T14:58:00;7.77;;;5.37;;
5121;SDS011;2563;52.242;7.956;2022-08-16T15:00:27;6.83;;;5.70;;
5121;SDS011;2563;52.242;7.956;2022-08-16T15:02:55;10.97;;;6.17;;
5121;SDS011;2563;52.242;7.956;2022-08-16T15:05:24;6.53;;;5.73;;